Time;durP1;ratioP1;P1;durP2;ratioP2;P2;SDS_P1;SDS_P2;PMS_P1;PMS_P2;Temp;Humidity;BMP_temperature;BMP_pressure;BME280_temperature;BME280_humidity;BME280_pressure;Samples;Min_cycle;Max_cycle;Signal;HPM_P1;HPM_P2
2023/01/03 00:01:24;;;;;;;10.30;3.40;;;5.40;99.90;;;;;;5045252;28;20040;-88
2023/01/03 00:03:53;;;;;;;12.20;4.22;;;5.60;99.90;;;;;;5029841;28;20120;-88
2023/01/03 00:06:24;;;;;;;11.55;3.95;;;4.40;99.90;;;;;;5048089;28;20055;-89
2023/01/03 00:08:51;;;;;;;10.00;3.60;;;5.40;99.90;;;;;;5046581;28;20045;-89
2023/01/03 00:12:22;;;;;;;11.10;3.97;;;5.20;99.90;;;;;;5030769;28;20483;-89
2023/01/03 00:14:06;;;;;;;10.70;3.67;;;5.50;99.90;;;;;;5043292;28;20052;-88
2023/01/03 00:16:31;;;;;;;13.07;3.78;;;4.70;99.90;;;;;;5043642;28;20065;-89
2023/01/03 00:18:57;;;;;;;13.30;4.07;;;4.30;99.90;;;;;;5015568;28;20061;-89
2023/01/03 00:21:25;;;;;;;10.65;3.28;;;4.40;99.90;;;;;;5045697;28;20548;-89
2023/01/03 00:23:51;;;;;;;9.98;3.50;;;4.20;99.90;;;;;;5030919;28;20576;-88
2023/01/03 00:26:17;;;;;;;12.25;3.30;;;4.30;99.90;;;;;;5011861;28;20095;-88
2023/01/03 00:28:43;;;;;;;10.82;3.60;;;4.70;99.90;;;;;;5030482;28;20048;-88
2023/01/03 00:31:10;;;;;;;13.73;3.58;;;4.30;99.90;;;;;;5028126;28;20045;-88
2023/01/03 00:33:38;;;;;;;12.68;3.30;;;4.30;99.90;;;;;;5030185;28;20095;-89
2023/01/03 00:36:06;;;;;;;10.18;3.20;;;4.80;99.90;;;;;;5028322;28;20052;-88
2023/01/03 00:38:32;;;;;;;12.93;3.13;;;4.20;99.90;;;;;;5042428;28;20124;-88
2023/01/03 00:41:16;;;;;;;10.73;2.80;;;4.30;99.90;;;;;;5044652;28;20478;-87
2023/01/03 00:43:43;;;;;;;10.43;3.03;;;4.20;99.90;;;;;;5046921;28;20108;-88
2023/01/03 00:46:11;;;;;;;11.02;3.42;;;4.20;99.90;;;;;;5045957;28;20037;-88
2023/01/03 00:48:37;;;;;;;9.90;3.00;;;4.20;99.90;;;;;;5046105;28;20036;-88
2023/01/03 00:51:09;;;;;;;11.95;3.55;;;5.10;99.90;;;;;;5030622;28;20044;-89
2023/01/03 00:53:36;;;;;;;12.70;3.42;;;4.20;99.90;;;;;;5029238;28;20036;-89
2023/01/03 00:56:08;;;;;;;11.57;3.53;;;4.10;99.90;;;;;;5028290;28;20053;-88
2023/01/03 00:58:35;;;;;;;11.68;2.85;;;4.20;99.90;;;;;;5047396;28;20037;-88
2023/01/03 01:01:16;;;;;;;9.75;3.00;;;5.20;99.90;;;;;;5043559;28;20107;-90
2023/01/03 01:03:45;;;;;;;10.70;3.17;;;6.00;99.90;;;;;;5027987;28;20557;-89
2023/01/03 01:06:19;;;;;;;8.10;2.70;;;4.30;99.90;;;;;;5045608;28;20036;-89
2023/01/03 01:08:47;;;;;;;12.05;3.00;;;4.30;99.90;;;;;;5029979;28;20044;-89
2023/01/03 01:11:13;;;;;;;10.98;2.85;;;4.30;99.90;;;;;;5047235;28;20041;-89
2023/01/03 01:13:40;;;;;;;10.02;2.67;;;4.30;99.90;;;;;;5029463;28;20055;-89
2023/01/03 01:16:12;;;;;;;8.32;2.55;;;4.30;99.90;;;;;;5045911;28;20052;-88
2023/01/03 01:18:39;;;;;;;9.85;2.83;;;4.40;99.90;;;;;;5023274;28;20781;-88
2023/01/03 01:21:07;;;;;;;11.45;2.67;;;5.40;99.90;;;;;;5013071;28;20084;-87
2023/01/03 01:23:37;;;;;;;8.95;2.58;;;5.00;99.90;;;;;;5054120;28;20049;-88
2023/01/03 01:26:05;;;;;;;9.68;2.60;;;4.40;99.90;;;;;;5045068;28;20037;-88
2023/01/03 01:28:31;;;;;;;10.73;2.95;;;4.40;99.90;;;;;;5025650;28;20041;-89
2023/01/03 01:30:59;;;;;;;12.05;3.00;;;4.50;99.90;;;;;;5026813;28;20037;-88
2023/01/03 01:33:25;;;;;;;8.77;3.25;;;5.90;99.90;;;;;;5029696;28;20404;-88
2023/01/03 01:35:50;;;;;;;11.65;3.30;;;5.50;99.90;;;;;;5028943;28;20049;-88
2023/01/03 01:38:16;;;;;;;9.57;2.90;;;4.50;99.90;;;;;;5042884;28;20033;-88
2023/01/03 01:40:42;;;;;;;9.90;3.03;;;5.80;99.90;;;;;;5028104;28;20128;-88
2023/01/03 01:46:24;;;;;;;10.38;3.25;;;4.50;99.90;;;;;;5042969;28;20358;-89
2023/01/03 01:48:55;;;;;;;8.88;3.30;;;4.50;99.90;;;;;;5047971;28;20053;-88
2023/01/03 01:51:23;;;;;;;12.32;3.10;;;5.60;99.90;;;;;;5027885;28;20513;-88
2023/01/03 01:53:52;;;;;;;13.40;3.85;;;4.50;99.90;;;;;;5045330;28;20052;-88
2023/01/03 01:56:25;;;;;;;12.10;3.75;;;4.50;99.90;;;;;;5044318;28;20883;-88
2023/01/03 01:58:53;;;;;;;11.95;3.75;;;6.20;99.90;;;;;;5043340;28;20051;-88
2023/01/03 02:01:22;;;;;;;11.27;3.50;;;5.90;99.90;;;;;;5012348;28;20044;-89
2023/01/03 02:04:02;;;;;;;14.00;3.63;;;5.70;99.90;;;;;;5029476;28;20048;-88
2023/01/03 02:06:30;;;;;;;11.15;3.47;;;4.40;99.90;;;;;;5044640;28;20036;-88
2023/01/03 02:08:56;;;;;;;12.10;3.88;;;4.40;99.90;;;;;;5045174;28;20037;-88
2023/01/03 02:11:43;;;;;;;11.60;3.63;;;5.80;99.90;;;;;;5042934;28;20048;-87
2023/01/03 02:14:21;;;;;;;9.48;3.35;;;4.50;99.90;;;;;;5042139;28;20041;-88
2023/01/03 02:17:19;;;;;;;10.93;3.75;;;4.40;99.90;;;;;;5044454;28;20049;-87
2023/01/03 02:20:07;;;;;;;12.95;3.80;;;4.60;99.90;;;;;;5044393;28;20052;-87
2023/01/03 02:22:44;;;;;;;10.02;3.80;;;4.40;99.90;;;;;;5025586;28;20128;-87
2023/01/03 02:25:28;;;;;;;12.45;3.65;;;4.40;99.90;;;;;;5045180;28;20494;-89
2023/01/03 02:28:14;;;;;;;10.95;3.58;;;4.40;99.90;;;;;;5024518;28;20048;-88
2023/01/03 02:30:53;;;;;;;9.70;3.70;;;4.40;99.90;;;;;;5025034;28;20076;-89
2023/01/03 02:33:27;;;;;;;11.55;3.67;;;5.20;99.90;;;;;;5044243;28;20052;-89
2023/01/03 02:36:21;;;;;;;10.93;3.80;;;4.40;99.90;;;;;;5028396;28;20846;-89
2023/01/03 02:38:56;;;;;;;;;;;4.40;99.90;;;;;;5041756;28;20039;-89
2023/01/03 02:41:40;;;;;;;11.80;3.63;;;4.40;99.90;;;;;;5042780;28;19990;-88
2023/01/03 02:44:24;;;;;;;10.68;4.00;;;4.40;99.90;;;;;;5031439;28;20037;-90
2023/01/03 02:46:59;;;;;;;9.98;3.63;;;4.40;99.90;;;;;;5044697;28;20052;-89
2023/01/03 02:49:36;;;;;;;11.00;3.90;;;5.30;99.90;;;;;;5043730;28;20040;-89
2023/01/03 02:52:07;;;;;;;11.55;3.90;;;4.40;99.90;;;;;;5040946;28;20055;-88
2023/01/03 02:55:06;;;;;;;10.55;3.80;;;4.30;99.90;;;;;;5045147;28;20064;-88
2023/01/03 02:57:44;;;;;;;11.50;4.07;;;4.40;99.90;;;;;;5047641;28;20037;-88
2023/01/03 03:00:13;;;;;;;12.48;3.50;;;4.30;99.90;;;;;;5064026;28;20044;-89
2023/01/03 03:02:43;;;;;;;11.10;3.53;;;4.30;99.90;;;;;;5044007;28;20052;-89
2023/01/03 03:05:16;;;;;;;12.00;3.63;;;4.30;99.90;;;;;;5043155;28;20108;-89
2023/01/03 03:07:45;;;;;;;9.68;3.40;;;4.70;99.90;;;;;;5048273;28;20751;-89
2023/01/03 03:13:12;;;;;;;11.38;3.67;;;4.20;99.90;;;;;;5044190;28;20111;-88
2023/01/03 03:15:57;;;;;;;11.10;3.42;;;4.10;99.90;;;;;;5030271;28;20033;-88
2023/01/03 03:18:42;;;;;;;10.30;3.60;;;4.70;99.90;;;;;;5047537;28;20531;-89
2023/01/03 03:26:46;;;;;;;10.65;3.45;;;5.30;99.90;;;;;;5046576;28;20103;-88
2023/01/03 03:29:17;;;;;;;10.02;3.33;;;3.90;99.90;;;;;;5030735;28;20056;-88
2023/01/03 03:31:48;;;;;;;9.32;3.50;;;4.60;99.90;;;;;;5047696;28;20074;-88
2023/01/03 03:34:28;;;;;;;10.90;3.17;;;5.50;99.90;;;;;;5045538;28;20082;-88
2023/01/03 03:37:25;;;;;;;11.95;3.80;;;3.90;99.90;;;;;;5044302;28;20048;-89
2023/01/03 03:45:51;;;;;;;9.27;3.22;;;5.00;99.90;;;;;;5023219;28;20053;-89
2023/01/03 03:49:36;;;;;;;10.33;3.73;;;3.60;99.90;;;;;;5027426;28;20595;-87
2023/01/03 03:51:26;;;;;;;10.65;3.90;;;3.60;99.90;;;;;;5045263;28;20052;-88
2023/01/03 03:53:54;;;;;;;9.32;3.83;;;4.60;99.90;;;;;;5031139;28;20134;-88
2023/01/03 03:56:27;;;;;;;11.77;3.80;;;3.50;99.90;;;;;;5043746;28;20525;-87
2023/01/03 03:58:59;;;;;;;12.93;4.75;;;4.50;99.90;;;;;;5044657;28;20048;-88
2023/01/03 04:01:27;;;;;;;12.05;4.38;;;3.50;99.90;;;;;;5047977;28;20048;-89
2023/01/03 04:03:56;;;;;;;13.25;4.80;;;4.10;99.90;;;;;;5046164;28;20051;-89
2023/01/03 04:06:29;;;;;;;15.18;4.68;;;3.80;99.90;;;;;;5046826;28;20397;-89
2023/01/03 04:08:55;;;;;;;12.95;4.47;;;4.40;99.90;;;;;;5030247;28;20041;-88
2023/01/03 04:11:20;;;;;;;11.98;4.78;;;3.40;99.90;;;;;;5031172;28;20041;-88
2023/01/03 04:13:46;;;;;;;13.52;5.60;;;3.40;99.90;;;;;;5046953;28;20068;-88
2023/01/03 04:16:12;;;;;;;14.43;5.57;;;3.30;99.90;;;;;;5048514;28;20103;-88
2023/01/03 04:18:38;;;;;;;14.60;6.00;;;3.30;99.90;;;;;;5047432;28;20071;-88
2023/01/03 04:21:03;;;;;;;13.98;5.85;;;3.30;99.90;;;;;;5044609;28;20506;-88
2023/01/03 04:23:29;;;;;;;14.35;5.97;;;3.30;99.90;;;;;;5013283;28;20075;-87
2023/01/03 04:25:55;;;;;;;16.58;6.85;;;3.30;99.90;;;;;;5027268;28;20060;-88
2023/01/03 04:28:21;;;;;;;14.32;6.50;;;4.20;99.90;;;;;;5009052;28;20169;-88
2023/01/03 04:30:47;;;;;;;19.10;7.05;;;3.40;99.90;;;;;;5045521;28;20517;-88
2023/01/03 04:33:12;;;;;;;16.75;6.82;;;3.40;99.90;;;;;;5030866;28;20120;-88
2023/01/03 04:35:38;;;;;;;16.13;6.55;;;4.90;99.90;;;;;;5013938;28;20202;-89
2023/01/03 04:38:04;;;;;;;16.25;7.28;;;3.30;99.90;;;;;;5033324;28;20048;-88
2023/01/03 04:40:32;;;;;;;15.85;7.18;;;4.40;99.90;;;;;;5045904;28;20045;-87
2023/01/03 04:45:41;;;;;;;17.25;8.05;;;3.40;99.90;;;;;;5032846;28;20317;-88
2023/01/03 04:48:07;;;;;;;17.20;8.15;;;3.40;99.90;;;;;;5028986;28;20286;-88
2023/01/03 04:50:33;;;;;;;19.23;8.07;;;4.50;99.90;;;;;;5030212;28;20501;-88
2023/01/03 04:52:59;;;;;;;17.35;8.45;;;4.60;99.90;;;;;;5030610;28;20136;-87
2023/01/03 04:55:24;;;;;;;17.60;8.48;;;5.30;99.90;;;;;;5030292;28;20128;-87
2023/01/03 04:57:50;;;;;;;17.05;8.73;;;4.30;99.90;;;;;;5041609;28;20106;-87
2023/01/03 05:00:16;;;;;;;17.77;8.85;;;3.90;99.90;;;;;;5027258;28;20044;-88
2023/01/03 05:02:42;;;;;;;17.58;9.57;;;3.60;99.90;;;;;;5013253;28;20037;-89
2023/01/03 05:05:08;;;;;;;18.88;9.82;;;4.10;99.90;;;;;;5030486;28;20061;-88
2023/01/03 05:07:34;;;;;;;17.67;9.00;;;4.80;99.90;;;;;;5046456;28;20120;-89
2023/01/03 05:10:00;;;;;;;17.83;9.43;;;3.60;99.90;;;;;;5026275;28;20052;-88
2023/01/03 05:12:26;;;;;;;18.77;9.82;;;3.80;99.90;;;;;;5043109;28;20143;-88
2023/01/03 05:14:52;;;;;;;20.08;9.45;;;3.70;99.90;;;;;;5044032;28;20477;-88
2023/01/03 05:17:19;;;;;;;20.83;11.00;;;3.70;99.90;;;;;;5045065;28;20409;-88
2023/01/03 05:28:01;;;;;;;18.42;10.18;;;4.80;99.90;;;;;;5041813;28;20395;-88
2023/01/03 05:30:27;;;;;;;20.70;10.50;;;3.70;99.90;;;;;;5043921;28;20036;-89
2023/01/03 05:32:53;;;;;;;20.42;10.48;;;5.50;99.90;;;;;;5039600;28;20390;-88
2023/01/03 05:35:19;;;;;;;19.02;10.52;;;3.70;99.90;;;;;;5029367;28;20041;-88
2023/01/03 05:37:45;;;;;;;19.33;10.63;;;3.80;99.90;;;;;;5042706;28;20049;-88
2023/01/03 05:40:11;;;;;;;22.52;11.38;;;4.30;99.90;;;;;;5045817;28;20053;-88
2023/01/03 05:42:37;;;;;;;21.23;11.05;;;5.10;99.90;;;;;;5045754;28;20372;-88
2023/01/03 05:45:03;;;;;;;22.00;11.05;;;3.80;99.90;;;;;;5029905;28;20044;-88
2023/01/03 05:47:29;;;;;;;24.23;11.50;;;3.80;99.90;;;;;;5029096;28;20041;-88
2023/01/03 05:49:55;;;;;;;21.63;10.48;;;3.80;99.90;;;;;;5024908;28;20394;-88
2023/01/03 05:52:21;;;;;;;24.40;11.65;;;3.90;99.90;;;;;;5045718;28;20029;-89
2023/01/03 05:54:47;;;;;;;20.42;11.18;;;3.90;99.90;;;;;;5027128;28;20037;-88
2023/01/03 05:57:13;;;;;;;22.15;11.57;;;;;;;;;;5026352;28;20041;-88
2023/01/03 05:59:39;;;;;;;24.02;11.30;;;3.90;99.90;;;;;;5047363;28;20555;-88
2023/01/03 06:02:05;;;;;;;23.35;11.48;;;;;;;;;;5024500;28;20049;-88
2023/01/03 06:04:30;;;;;;;21.38;10.90;;;3.90;99.90;;;;;;5044183;28;20414;-88
2023/01/03 06:06:56;;;;;;;20.95;11.05;;;5.20;99.90;;;;;;5038050;28;20033;-88
2023/01/03 06:09:22;;;;;;;24.23;11.85;;;3.90;99.90;;;;;;5028644;28;20053;-87
2023/01/03 06:11:48;;;;;;;23.10;11.35;;;3.90;99.90;;;;;;5025393;28;20029;-88
2023/01/03 06:14:13;;;;;;;23.15;12.15;;;5.00;99.90;;;;;;5027004;28;20049;-88
2023/01/03 06:19:23;;;;;;;21.40;11.65;;;3.90;99.90;;;;;;5043596;28;20049;-88
2023/01/03 06:21:49;;;;;;;24.35;12.65;;;3.80;99.90;;;;;;5027372;28;20172;-88
2023/01/03 06:24:15;;;;;;;24.55;13.27;;;3.80;99.90;;;;;;5015916;28;20041;-88
2023/01/03 06:26:40;;;;;;;22.55;12.65;;;5.30;99.90;;;;;;5025401;28;20099;-88
2023/01/03 06:29:06;;;;;;;24.58;12.60;;;5.30;99.90;;;;;;5045585;28;20048;-88
2023/01/03 06:31:32;;;;;;;23.80;12.23;;;3.80;99.90;;;;;;5029560;28;20103;-89
2023/01/03 06:33:58;;;;;;;27.10;14.05;;;4.00;99.90;;;;;;4997687;28;20037;-88
2023/01/03 06:36:27;;;;;;;25.27;12.75;;;5.00;99.90;;;;;;5044721;28;20029;-88
2023/01/03 06:38:53;;;;;;;29.13;13.60;;;3.70;99.90;;;;;;5032720;28;20130;-88
2023/01/03 06:41:20;;;;;;;25.60;13.18;;;4.20;99.90;;;;;;5047659;28;20571;-88
2023/01/03 06:43:45;;;;;;;24.50;13.60;;;3.70;99.90;;;;;;5032180;28;20048;-89
2023/01/03 06:54:32;;;;;;;26.50;14.13;;;4.50;99.90;;;;;;5032209;28;20494;-89
2023/01/03 06:56:58;;;;;;;22.98;13.05;;;4.20;99.90;;;;;;5048173;28;20102;-89
2023/01/03 06:59:25;;;;;;;28.30;14.32;;;4.60;99.90;;;;;;5046357;28;20099;-89
2023/01/03 07:01:52;;;;;;;27.02;14.23;;;3.60;99.90;;;;;;5048855;28;20418;-89
2023/01/03 07:04:19;;;;;;;27.95;14.55;;;5.20;99.90;;;;;;5027223;28;20045;-88
2023/01/03 07:06:45;;;;;;;27.55;15.02;;;5.00;99.90;;;;;;5029699;28;20372;-88
2023/01/03 07:09:11;;;;;;;27.83;15.45;;;4.70;99.90;;;;;;5029643;28;20486;-88
2023/01/03 07:11:37;;;;;;;28.02;14.82;;;3.40;99.90;;;;;;5032437;28;20396;-88
2023/01/03 07:14:05;;;;;;;27.55;15.63;;;3.40;99.90;;;;;;5046730;28;20128;-88
2023/01/03 07:16:36;;;;;;;27.27;15.63;;;4.70;99.90;;;;;;5029530;28;20036;-88
2023/01/03 07:19:06;;;;;;;29.60;14.75;;;3.30;99.90;;;;;;5029450;28;20055;-89
2023/01/03 07:21:33;;;;;;;28.35;15.57;;;4.20;99.90;;;;;;5044491;28;20396;-88
2023/01/03 07:24:01;;;;;;;29.88;15.60;;;3.20;99.90;;;;;;5045643;28;20167;-88
2023/01/03 07:26:29;;;;;;;28.95;15.98;;;3.20;99.90;;;;;;5032292;28;20041;-88
2023/01/03 07:28:56;;;;;;;28.05;15.57;;;3.90;99.90;;;;;;5028746;28;20798;-88
2023/01/03 07:31:22;;;;;;;27.20;14.80;;;4.60;99.90;;;;;;5044695;28;20049;-88
2023/01/03 07:33:47;;;;;;;26.40;15.32;;;3.10;99.90;;;;;;5045875;28;20115;-88
2023/01/03 07:36:14;;;;;;;26.42;14.73;;;3.10;99.90;;;;;;5045713;28;20037;-88
2023/01/03 07:38:42;;;;;;;28.05;15.20;;;3.10;99.90;;;;;;5050938;28;20052;-88
2023/01/03 07:41:08;;;;;;;27.63;14.98;;;4.20;99.90;;;;;;5050425;28;20498;-89
2023/01/03 07:43:38;;;;;;;29.80;14.45;;;4.00;99.90;;;;;;5035528;28;20091;-88
2023/01/03 07:46:09;;;;;;;26.30;14.57;;;3.00;99.90;;;;;;5055076;28;20516;-88
2023/01/03 07:48:35;;;;;;;27.35;14.95;;;3.00;99.90;;;;;;5054025;28;20049;-88
2023/01/03 07:51:01;;;;;;;29.33;15.10;;;;;;;;;;5037059;28;20451;-90
2023/01/03 07:53:28;;;;;;;28.98;15.13;;;3.00;99.90;;;;;;5033213;28;20045;-89
2023/01/03 07:55:54;;;;;;;29.75;15.85;;;;;;;;;;5047665;28;20055;-90
2023/01/03 07:58:20;;;;;;;27.63;14.80;;;3.00;99.90;;;;;;5029958;28;20045;-91
2023/01/03 08:00:46;;;;;;;28.27;15.35;;;4.10;99.90;;;;;;5047803;28;20063;-90
2023/01/03 08:03:13;;;;;;;28.25;14.77;;;3.00;99.90;;;;;;5038859;28;20120;-90
2023/01/03 08:05:38;;;;;;;30.55;15.15;;;4.10;99.90;;;;;;5032593;28;20455;-89
2023/01/03 08:08:05;;;;;;;25.95;14.60;;;2.90;99.90;;;;;;5033969;28;20136;-90
2023/01/03 08:13:17;;;;;;;26.30;14.07;;;2.90;99.90;;;;;;5043459;28;20480;-89
2023/01/03 08:15:54;;;;;;;26.27;13.60;;;2.90;99.90;;;;;;5045058;28;20025;-90
2023/01/03 08:18:25;;;;;;;24.20;14.27;;;2.90;99.90;;;;;;5053738;28;20435;-90
2023/01/03 08:20:54;;;;;;;27.08;15.10;;;2.90;99.90;;;;;;5041538;28;20934;-91
2023/01/03 08:23:20;;;;;;;25.45;14.23;;;4.70;99.90;;;;;;5041330;28;20057;-91
2023/01/03 08:25:46;;;;;;;24.90;14.23;;;4.30;99.90;;;;;;5028130;28;20113;-91
2023/01/03 08:28:12;;;;;;;24.27;13.90;;;3.90;99.90;;;;;;5046119;28;20049;-90
2023/01/03 08:30:49;;;;;;;25.60;13.55;;;3.90;99.90;;;;;;5047409;28;20227;-91
2023/01/03 08:33:17;;;;;;;27.05;15.23;;;3.00;99.90;;;;;;5043109;28;20486;-91
2023/01/03 08:35:51;;;;;;;24.73;15.07;;;3.00;99.90;;;;;;5029142;28;20126;-91
2023/01/03 08:38:27;;;;;;;25.08;15.07;;;4.20;99.90;;;;;;5044688;28;20106;-90
2023/01/03 08:40:54;;;;;;;23.50;13.52;;;3.10;99.90;;;;;;5046355;28;20426;-90
2023/01/03 08:43:20;;;;;;;26.50;14.50;;;3.10;99.90;;;;;;5028130;28;20482;-91
2023/01/03 08:45:48;;;;;;;24.52;13.88;;;3.20;99.90;;;;;;5029583;28;20174;-90
2023/01/03 08:48:15;;;;;;;25.80;14.25;;;3.20;99.90;;;;;;5029897;28;20072;-89
2023/01/03 08:50:41;;;;;;;24.10;13.38;;;3.20;99.90;;;;;;5044310;28;20048;-90
2023/01/03 08:53:07;;;;;;;24.50;14.00;;;4.50;99.90;;;;;;5044639;28;20413;-89
2023/01/03 08:55:33;;;;;;;23.63;13.35;;;4.10;99.90;;;;;;5044599;28;20036;-90
2023/01/03 08:57:59;;;;;;;25.92;14.55;;;;;;;;;;5047359;28;20051;-88
2023/01/03 09:00:26;;;;;;;22.33;14.10;;;3.40;99.90;;;;;;5045576;28;20033;-91
2023/01/03 09:02:52;;;;;;;24.20;14.18;;;3.40;99.90;;;;;;5034698;28;20025;-90
2023/01/03 09:05:18;;;;;;;24.80;13.82;;;3.50;99.90;;;;;;5046261;28;20508;-91
2023/01/03 09:07:43;;;;;;;22.98;13.55;;;3.50;99.90;;;;;;5046897;28;20502;-89
2023/01/03 09:10:10;;;;;;;25.38;14.23;;;3.60;99.90;;;;;;5047429;28;20047;-89
2023/01/03 09:12:35;;;;;;;22.80;13.85;;;3.60;99.90;;;;;;5031939;28;20076;-90
2023/01/03 09:15:01;;;;;;;22.85;13.00;;;5.30;99.90;;;;;;5048662;28;20072;-91
2023/01/03 09:17:28;;;;;;;21.42;13.18;;;3.60;99.90;;;;;;5029527;28;20479;-90
2023/01/03 09:19:54;;;;;;;23.95;13.43;;;4.70;99.90;;;;;;5047712;28;20045;-90
2023/01/03 09:22:20;;;;;;;21.58;13.07;;;3.60;99.90;;;;;;5046525;28;20461;-89
2023/01/03 09:24:45;;;;;;;22.60;13.85;;;3.60;99.90;;;;;;5015009;28;20533;-89
2023/01/03 09:27:11;;;;;;;22.17;14.07;;;3.60;99.90;;;;;;5029633;28;20032;-89
2023/01/03 09:29:37;;;;;;;21.60;13.70;;;4.60;99.90;;;;;;5042623;28;20037;-89
2023/01/03 09:32:03;;;;;;;22.55;14.02;;;5.20;99.90;;;;;;5028279;28;20049;-89
2023/01/03 09:34:29;;;;;;;20.73;12.32;;;3.60;99.90;;;;;;5028936;28;20120;-89
2023/01/03 09:36:54;;;;;;;18.75;12.00;;;3.50;99.90;;;;;;5011899;28;20120;-89
2023/01/03 09:39:20;;;;;;;19.90;11.52;;;3.50;99.90;;;;;;5029327;28;20527;-90
2023/01/03 09:43:11;;;;;;;17.80;10.90;;;3.40;99.90;;;;;;5052803;28;20076;-89
2023/01/03 09:44:32;;;;;;;20.38;11.23;;;4.70;99.90;;;;;;5033902;28;20041;-89
2023/01/03 09:46:58;;;;;;;16.80;10.48;;;3.20;99.90;;;;;;5031578;28;20562;-88
2023/01/03 09:49:23;;;;;;;20.27;11.32;;;3.00;99.90;;;;;;5039871;28;20116;-89
2023/01/03 10:03:45;;;;;;;22.08;11.18;;;4.00;99.90;;;;;;5044839;28;20044;-90
2023/01/03 10:06:18;;;;;;;19.23;10.73;;;2.90;99.90;;;;;;5043549;28;20391;-89
2023/01/03 10:09:11;;;;;;;22.33;11.25;;;4.50;99.90;;;;;;5041145;28;20045;-89
2023/01/03 10:11:58;;;;;;;23.45;11.60;;;2.90;99.90;;;;;;5042860;28;20041;-90
2023/01/03 10:14:43;;;;;;;28.52;12.50;;;2.90;99.90;;;;;;5045244;28;20413;-89
2023/01/03 10:17:27;;;;;;;22.90;12.32;;;3.00;99.90;;;;;;5045474;28;20479;-89
2023/01/03 10:20:25;;;;;;;33.20;13.32;;;3.00;99.90;;;;;;5044527;28;20074;-90
2023/01/03 10:22:55;;;;;;;28.55;12.00;;;3.00;99.90;;;;;;5040129;28;20098;-90
2023/01/03 10:25:23;;;;;;;27.83;13.00;;;3.00;99.90;;;;;;5044729;28;20041;-89
2023/01/03 10:27:53;;;;;;;29.80;13.88;;;3.10;99.90;;;;;;5028711;28;20472;-90
2023/01/03 10:30:29;;;;;;;29.45;13.82;;;3.20;99.90;;;;;;5026248;28;20045;-90
2023/01/03 10:33:03;;;;;;;38.40;15.23;;;3.20;99.90;;;;;;5044404;28;20132;-90
2023/01/03 10:35:32;;;;;;;28.67;15.07;;;3.20;99.90;;;;;;5045213;28;20045;-90
2023/01/03 10:37:58;;;;;;;40.20;15.20;;;3.30;99.90;;;;;;5028877;28;20044;-89
2023/01/03 10:40:38;;;;;;;32.90;15.80;;;3.40;99.90;;;;;;5008698;28;20056;-89
2023/01/03 10:43:36;;;;;;;26.10;14.98;;;3.40;99.90;;;;;;5045227;28;20098;-90
2023/01/03 10:46:14;;;;;;;28.25;15.07;;;3.50;99.90;;;;;;5061356;28;20048;-89
2023/01/03 10:48:42;;;;;;;42.83;18.67;;;3.60;99.90;;;;;;5059491;28;20044;-89
2023/01/03 10:51:26;;;;;;;45.97;19.58;;;3.80;99.90;;;;;;5041535;28;20132;-89
2023/01/03 10:53:55;;;;;;;36.83;19.77;;;3.70;99.90;;;;;;5042846;28;20127;-90
2023/01/03 10:56:23;;;;;;;37.35;20.30;;;3.70;99.90;;;;;;5028424;28;20052;-89
2023/01/03 10:59:22;;;;;;;51.72;23.40;;;4.80;99.90;;;;;;5027878;28;20048;-89
2023/01/03 11:02:01;;;;;;;37.20;20.95;;;4.50;99.90;;;;;;5040880;28;20066;-90
2023/01/03 11:04:29;;;;;;;42.88;22.30;;;3.90;99.90;;;;;;5044097;28;20040;-90
2023/01/03 11:07:11;;;;;;;40.40;21.60;;;4.60;99.90;;;;;;5025926;28;20049;-89
2023/01/03 11:09:58;;;;;;;49.28;23.63;;;4.10;99.90;;;;;;5028700;28;20115;-89
2023/01/03 11:12:43;;;;;;;47.28;24.48;;;4.30;99.90;;;;;;5026755;28;20063;-89
2023/01/03 11:15:31;;;;;;;46.97;23.92;;;4.30;99.90;;;;;;5044915;28;20056;-90
2023/01/03 11:18:05;;;;;;;52.65;25.13;;;4.40;99.90;;;;;;5038165;28;20163;-90
2023/01/03 11:20:46;;;;;;;50.15;24.85;;;4.40;99.90;;;;;;5030711;28;20049;-90
2023/01/03 11:23:44;;;;;;;48.88;25.33;;;4.50;99.90;;;;;;5042880;28;21432;-90
2023/01/03 11:26:26;;;;;;;50.92;24.90;;;4.70;99.90;;;;;;5031705;28;20048;-89
2023/01/03 11:29:20;;;;;;;52.50;25.92;;;4.70;99.90;;;;;;5029488;28;20095;-91
2023/01/03 11:31:45;;;;;;;54.83;27.80;;;4.80;99.90;;;;;;5047204;28;20073;-89
2023/01/03 11:34:36;;;;;;;54.05;26.67;;;4.90;99.90;;;;;;5041926;28;20469;-90
2023/01/03 11:37:08;;;;;;;52.88;26.33;;;5.00;99.90;;;;;;5029399;28;20513;-89
2023/01/03 11:40:13;;;;;;;55.83;26.50;;;5.40;99.90;;;;;;5045061;28;20060;-90
2023/01/03 11:43:16;;;;;;;51.88;25.27;;;5.20;99.90;;;;;;5048043;28;20037;-90
2023/01/03 11:45:49;;;;;;;46.95;24.85;;;5.20;99.90;;;;;;5029912;28;20048;-89
2023/01/03 11:48:15;;;;;;;45.38;23.55;;;;;;;;;;5046091;28;20466;-89
2023/01/03 11:50:53;;;;;;;52.50;25.90;;;5.20;99.90;;;;;;5028527;28;20116;-89
2023/01/03 11:53:22;;;;;;;47.58;24.83;;;;;;;;;;5045177;28;20048;-89
2023/01/03 11:56:13;;;;;;;51.30;25.25;;;5.30;99.90;;;;;;5062254;28;20652;-90
2023/01/03 11:58:58;;;;;;;43.00;24.05;;;5.40;99.90;;;;;;5027594;28;20045;-90
2023/01/03 12:01:52;;;;;;;44.72;24.17;;;5.90;99.90;;;;;;5030828;28;20045;-90
2023/01/03 12:04:27;;;;;;;46.88;24.70;;;5.40;99.90;;;;;;5012511;28;20056;-91
2023/01/03 12:07:16;;;;;;;44.35;23.67;;;5.40;99.90;;;;;;5029441;28;20029;-91
2023/01/03 12:10:22;;;;;;;48.20;24.52;;;5.50;99.90;;;;;;5030148;28;20072;-90
2023/01/03 12:13:03;;;;;;;47.58;24.73;;;5.50;99.90;;;;;;5029975;28;20135;-90
2023/01/03 12:15:46;;;;;;;49.00;25.08;;;5.50;99.90;;;;;;5030362;28;20048;-90
2023/01/03 12:18:33;;;;;;;45.00;24.10;;;6.70;99.90;;;;;;5026896;28;20052;-90
2023/01/03 12:21:05;;;;;;;46.50;24.77;;;6.30;99.90;;;;;;5046558;28;20057;-90
2023/01/03 12:23:50;;;;;;;43.03;23.85;;;5.70;99.90;;;;;;5027843;28;20203;-90
2023/01/03 12:26:16;;;;;;;51.40;24.50;;;6.30;99.90;;;;;;5040657;28;20033;-90
2023/01/03 12:29:06;;;;;;;49.15;25.02;;;5.20;99.90;;;;;;5030463;28;20052;-91
2023/01/03 12:31:38;;;;;;;47.22;24.33;;;5.70;99.90;;;;;;5045008;28;20375;-90
2023/01/03 12:34:30;;;;;;;46.45;24.08;;;6.90;99.90;;;;;;5030168;28;20052;-90
2023/01/03 12:37:03;;;;;;;42.78;23.52;;;6.50;99.90;;;;;;5031445;28;20487;-90
2023/01/03 12:39:37;;;;;;;45.88;23.60;;;5.80;99.90;;;;;;5046090;28;20575;-91
2023/01/03 12:42:25;;;;;;;53.40;24.75;;;5.80;99.90;;;;;;5044204;28;20041;-90
2023/01/03 12:45:19;;;;;;;46.90;23.92;;;5.90;99.90;;;;;;5048090;28;20044;-90
2023/01/03 12:48:01;;;;;;;43.97;23.00;;;5.90;99.90;;;;;;5013410;28;20126;-89
2023/01/03 12:50:42;;;;;;;41.73;22.30;;;6.30;99.90;;;;;;5062734;28;20183;-91
2023/01/03 12:53:42;;;;;;;39.70;23.23;;;5.90;99.90;;;;;;5029885;28;20041;-90
2023/01/03 12:56:28;;;;;;;41.25;22.30;;;5.90;99.90;;;;;;5060551;28;20048;-90
2023/01/03 12:59:14;;;;;;;46.10;22.05;;;6.00;99.90;;;;;;5046017;28;20041;-90
2023/01/03 13:01:56;;;;;;;43.75;21.58;;;6.00;99.90;;;;;;5046892;28;20041;-90
2023/01/03 13:04:27;;;;;;;40.38;20.35;;;6.00;99.90;;;;;;5026787;28;20371;-90
2023/01/03 13:07:04;;;;;;;41.13;22.13;;;6.00;99.90;;;;;;5042193;28;20051;-90
2023/01/03 13:09:39;;;;;;;42.58;20.35;;;6.10;99.90;;;;;;5045935;28;20055;-90
2023/01/03 13:12:15;;;;;;;39.17;20.05;;;7.60;99.90;;;;;;5042054;28;20045;-90
2023/01/03 13:15:02;;;;;;;39.58;20.85;;;6.10;99.90;;;;;;5030276;28;20045;-90
2023/01/03 13:17:45;;;;;;;34.08;19.00;;;6.10;99.90;;;;;;5043363;28;20086;-91
2023/01/03 13:20:17;;;;;;;32.47;18.15;;;6.10;99.90;;;;;;5045464;28;20032;-90
2023/01/03 13:22:47;;;;;;;36.50;19.50;;;6.20;99.90;;;;;;5043502;28;20052;-90
2023/01/03 13:25:35;;;;;;;32.72;19.48;;;6.20;99.90;;;;;;5045932;28;20047;-90
2023/01/03 13:28:21;;;;;;;37.05;18.13;;;5.60;99.90;;;;;;5045803;28;20134;-90
2023/01/03 13:30:47;;;;;;;33.85;16.92;;;6.20;99.90;;;;;;5029671;28;20051;-91
2023/01/03 13:33:15;;;;;;;30.83;16.70;;;6.20;99.90;;;;;;5029735;28;20569;-91
2023/01/03 13:35:44;;;;;;;32.65;17.48;;;6.30;99.90;;;;;;5029425;28;20037;-89
2023/01/03 13:38:18;;;;;;;30.55;16.85;;;6.30;99.90;;;;;;5027097;28;20055;-92
2023/01/03 13:40:49;;;;;;;31.60;16.42;;;6.20;99.90;;;;;;5028920;28;20043;-90
2023/01/03 13:43:22;;;;;;;26.27;15.50;;;6.30;99.90;;;;;;5045966;28;20036;-90
2023/01/03 13:45:54;;;;;;;30.42;16.60;;;6.40;99.90;;;;;;5045688;28;20211;-89
2023/01/03 13:48:23;;;;;;;29.90;16.75;;;6.40;99.90;;;;;;5029303;28;20032;-90
2023/01/03 13:51:13;;;;;;;29.20;16.27;;;6.40;99.90;;;;;;5043335;28;20426;-90
2023/01/03 13:54:09;;;;;;;34.10;17.38;;;6.40;99.90;;;;;;5044904;28;20040;-90
2023/01/03 13:56:44;;;;;;;29.08;15.80;;;;;;;;;;5043572;28;20473;-90
2023/01/03 13:59:13;;;;;;;30.75;15.88;;;6.40;99.90;;;;;;5043734;28;20036;-91
2023/01/03 14:01:42;;;;;;;29.58;15.38;;;8.00;99.90;;;;;;5043977;28;20501;-91
2023/01/03 14:04:11;;;;;;;27.23;15.60;;;6.50;99.90;;;;;;5045611;28;20106;-91